Latest Weather Forecast - Tuesday 4th August 2020 (6 pm)

Forecast Period: 

6:00 pm 4th August 2020  to 6:00 am 5th August 2020 

Synopsis:

Weak unstable conditions will be affecting the islands

Forecast:

 Partly to cloudy and slightly hazy with scattered showers

   Weather    Advisory/Warning:

None
Winds:

ENE - E at 10 - 25 km/h (6 – 16 mph) 

Sea Conditions:

Slight to moderate in open water; swells (1.0m – 1.5m)

 Marine 

Advisory/Warning:

None 

Upcoming Tides:
High: 6:13 pm (4th)

 9:39 am

Low: 2:56 am

12:15 pm

Aviation WX

[Source: ADDS]
METAR
TVSA 242200Z 00000KT 9999 VCSH SCT020 29/25 Q1014 VCSH NE,SE, S NOSIG =
TVSA 241700Z 2418/2518 07006KT 9999 SCT018 TEMPO 2418/2421 5000 TSRA BKN014 FEW015CB
TAF
TVSA 241700Z 2418/2518 07006KT 9999 SCT018 TEMPO 2418/2421 5000 TSRA BKN014 FEW015CB =
SR / SS: 09:53 / 21:59 UTC (Sunrise Sunset 2020-09-24)